Atwood, California
Current Conditions -  °F | °C
As of 6:53 AM on Friday 19 Dec 2014 (Local Time) from KFUL Reporting Station
Clear Clear  
Wind Chill: 49°   Ceiling: Unl
Heat Index: 49°   Visibility: 8mi
Dew Point: 45°   Wind: 0mph
Humidity: 86%   Direction: NA
Pressure: 30.22"   Gusts: NA
Location:  33.87°N, 117.83°W
Report Text: KFUL 191453Z 00000KT 8SM CLR 09/07 A3022 RMK AO2 SLP231 T00940072 53008
Loading
Personal Weather Stations






























Interactive Weather Map New forecast layout! Learn more

10-Day Weather Forecast

Advertisements
Track Severe Weather on mobile